Weather observations for the past three days for
Marion County Airport
Metric (Imperial)
Date Time (edt) Wind (kph) Vis. (km) Weather Sky Cond. Temperature (ºC) Relative Humidity Wind Chill (°C) Heat Index (°C) Pressure Precipitation (cm)
Air Dwpt 6 hour altimeter (cm) sea level (mb) 1 hr 3 hr 6 hr
Max. Min.
04 16:35 S 22 G 28 16.09 Fair CLR 25 6 30% 25 76.17 0.0
04 16:15 S 17 16.09 Fair CLR 25 6 30% 25 76.2 0.0
04 15:55 S 17 16.09 Fair CLR 25 6 30% 25 76.2 0.0
04 15:35 S 13 G 28 16.09 Fair CLR 25 6 30% 25 76.23 0.0
04 15:15 SW 20 G 28 16.09 Fair CLR 25 6 30% 25 76.25 0.0
04 14:55 SW 7 G 28 16.09 Fair CLR 25 6 30% 25 76.25 0.0
04 14:35 SW 11 16.09 Fair CLR 25 7 32% 25 76.28 0.0
04 14:15 SW 9 16.09 Fair CLR 24 6 31% 25 76.28 0.0
04 13:55 W 9 16.09 Fair CLR 23 6 33% 76.3 0.0
04 13:35 S 11 16.09 Fair CLR 23 6 33% 76.3 0.0
04 13:15 W 17 16.09 Fair CLR 23 6 33% 76.33 0.0
04 12:55 W 13 16.09 Fair CLR 23 5 31% 76.33 0.0
04 12:35 SW 7 16.09 Fair CLR 22 5 33% 76.35 0.0
04 12:15 W 15 16.09 Fair CLR 22 6 36% 76.38 0.0
04 11:55 SW 20 16.09 Fair CLR 22 6 36% 76.38 0.0
04 11:35 W 7 16.09 Fair CLR 22 7 38% 76.38 0.0
04 11:15 W 13 16.09 Fair CLR 21 8 43% 76.4 0.0
04 10:55 W 11 16.09 Fair CLR 21 9 46% 76.4 0.0
04 10:35 W 7 16.09 Fair CLR 20 10 53% 76.4 0.0
04 10:15 SW 7 16.09 Fair CLR 19 10 56% 76.38 0.0
04 09:55 SW 7 16.09 Fair CLR 18 10 60% 76.38 0.0
04 09:35 S 9 16.09 Fair CLR 17 10 64% 76.4 0.0
04 09:15 W 15 16.09 Fair CLR 16 10 68% 76.43 0.0
04 08:55 S 11 16.09 Fair CLR 15 11 77% 76.4 0.0
04 08:35 S 11 16.09 Fair CLR 14 12 88% 76.4 0.0
04 08:15 S 9 16.09 Fair CLR 12 12 100% 76.4 0.0
04 07:55 Calm 16.09 Fair CLR 11 11 100% 76.4 0.0
04 07:35 Calm 16.09 Fair CLR 10 10 100% 76.4 0.0
04 07:15 Calm 16.09 Fair CLR 8 8 100% 76.4 0.0
04 06:55 Calm 16.09 Fair CLR 8 8 100% 76.4 0.0
04 06:35 Calm 16.09 Fair CLR 8 8 100% 76.38 0.0
04 06:15 Calm 16.09 Fair CLR 8 8 100% 76.38 0.0
04 05:55 Calm 16.09 Fair CLR 8 8 100% 76.38 0.0
04 05:35 Calm 16.09 Fair CLR 9 9 100% 76.38 0.0
04 05:15 Calm 16.09 Fair CLR 10 10 100% 76.38 0.0
04 04:55 Calm 16.09 Fair CLR 11 10 94% 76.38 0.0
04 04:35 S 7 16.09 Fair CLR 11 10 94% 76.38 0.0
04 04:15 S 7 16.09 Fair CLR 10 10 100% 9 76.38 0.0
04 03:55 S 7 16.09 Fair CLR 10 10 100% 9 76.38 0.0
04 03:40 S 7 16.09 Fair CLR 10 10 100% 9 76.38 0.0
04 03:15 S 6 16.09 Fair CLR 10 10 100% 76.4 0.0
04 02:55 Calm 16.09 Fair CLR 11 9 88% 76.4 0.0
04 02:15 S 7 16.09 Fair CLR 11 9 88% 76.43 0.0
04 01:55 S 7 16.09 Fair CLR 11 8 82% 76.43 0.0
04 01:35 S 6 16.09 Fair CLR 11 8 82% 76.43 0.0
04 01:15 S 7 16.09 Fair CLR 11 8 82% 76.43 0.0
04 01:00 S 7 16.09 Fair CLR 11 8 82% 76.43 0.0
04 00:35 S 6 16.09 Fair CLR 12 8 77% 76.43 0.0
04 00:15 S 7 16.09 Fair CLR 12 8 77% 76.43 0.0
03 23:55 S 9 16.09 Fair CLR 12 8 77% 76.43 0.0
03 23:35 S 7 16.09 Fair CLR 12 8 77% 76.43 0.0
03 23:15 S 9 16.09 Fair CLR 13 8 72% 76.43 0.0
03 22:55 S 11 16.09 Fair CLR 13 8 72% 76.43 0.0
03 22:35 S 7 16.09 Fair CLR 13 8 72% 76.4 0.0
03 22:15 S 9 16.09 Fair CLR 13 8 72% 76.4 0.0
03 21:55 S 9 16.09 Fair CLR 13 7 67% 76.38 0.0
03 21:35 S 6 16.09 Fair CLR 13 7 67% 76.35 0.0
03 21:15 S 6 16.09 Fair CLR 15 7 59% 76.35 0.0
03 20:55 S 6 16.09 Fair CLR 15 6 55% 76.33 0.0
03 20:35 S 7 16.09 Fair CLR 15 6 55% 76.33 0.0
03 20:15 S 6 16.09 Fair CLR 16 7 55% 76.3 0.0
03 19:55 S 6 16.09 Fair CLR 17 5 45% 76.3 0.0
03 19:35 S 9 16.09 Fair CLR 18 5 43% 76.28 0.0
03 19:15 S 7 16.09 Fair CLR 19 4 37% 76.28 0.0
03 18:55 W 6 16.09 Fair CLR 20 4 35% 76.28 0.0
03 18:35 W 13 16.09 Fair CLR 20 4 35% 76.3 0.0
03 18:15 S 6 16.09 Fair CLR 20 3 33% 76.3 0.0
03 17:55 W 17 16.09 Fair CLR 20 3 33% 76.3 0.0
03 17:35 W 17 16.09 Fair CLR 20 3 33% 76.28 0.0
03 17:15 NW 11 16.09 Fair CLR 20 3 33% 76.28 0.0
03 16:55 W 17 G 26 16.09 Fair CLR 20 3 33% 76.28 0.0
03 16:35 W 9 G 17 16.09 Partly Cloudy SCT060 19 3 35% 76.33 0.0
03 16:15 W 13 16.09 Partly Cloudy SCT060 20 4 35% 76.35 0.0
03 15:55 W 15 16.09 Partly Cloudy SCT060 20 4 35% 76.38 0.0
03 15:35 NW 6 16.09 Partly Cloudy SCT060 19 5 40% 76.38 0.0
03 15:15 NW 11 G 17 16.09 Fair CLR 18 4 40% 76.4 0.0
03 14:55 W 15 G 26 16.09 Fair CLR 18 4 40% 76.4 0.0
03 14:35 NW 15 G 26 16.09 Fair CLR 18 5 43% 76.43 0.0
03 14:15 NW 17 G 30 16.09 Fair CLR 18 5 43% 76.45 0.0
03 13:55 N 6 16.09 Fair CLR 17 3 39% 76.45 0.0
03 13:35 NW 7 16.09 Fair CLR 17 4 42% 76.45 0.0
03 13:15 N 6 16.09 Fair CLR 16 3 42% 76.5 0.0
03 12:55 N 13 16.09 Fair CLR 17 3 39% 76.53 0.0
03 12:35 Calm 16.09 Fair CLR 16 3 42% 76.56 0.0
03 12:15 N 9 16.09 Fair CLR 16 3 42% 76.56 0.0
03 11:55 N 11 16.09 Fair CLR 15 3 45% 76.58 0.0
03 11:35 NE 9 16.09 Fair CLR 15 3 45% 76.58 0.0
03 11:15 N 13 16.09 Fair CLR 15 3 45% 76.58 0.0
03 10:55 N 9 16.09 Fair CLR 15 3 45% 76.56 0.0
03 10:35 N 11 16.09 Fair CLR 15 3 45% 76.56 0.0
03 10:15 N 13 G 28 16.09 Fair CLR 14 3 48% 76.53 0.0
03 09:55 N 17 16.09 Fair CLR 13 4 55% 76.53 0.0
03 09:35 N 15 16.09 Fair CLR 12 5 63% 76.53 0.0
03 09:15 N 13 16.09 Fair CLR 12 6 67% 76.53 0.0
03 08:55 N 17 16.09 Fair CLR 8 8 100% 6 76.53 0.0
03 08:35 N 9 16.09 Fair CLR 8 8 100% 7 76.53 0.0
03 08:15 N 9 16.09 Fair CLR 8 8 100% 7 76.5 0.0
03 07:55 N 9 16.09 Fair CLR 7 7 100% 5 76.48 0.0
03 07:35 Calm 16.09 Fair CLR 7 7 100% 76.45 0.0
03 07:15 Calm 11.27 Partly Cloudy SCT002 7 7 100% 76.45 0.0
03 06:55 Calm 0.24 Fog OVC002 6 6 100% 76.43 0.0
03 06:35 Calm 0.24 Fog OVC002 6 6 100% 76.38 0.0
03 06:15 Calm 0.40 Fog OVC002 6 6 100% 76.35 0.0
03 05:35 Calm 0.40 Fog OVC002 6 6 100% 76.33 0.0
03 05:15 Calm 0.80 Fog OVC002 7 7 100% 76.33 0.0
03 04:55 Calm 1.21 Fog/Mist BKN002 6 6 100% 76.33 0.0
03 04:35 Calm 2.01 Fog/Mist VV007 6 6 100% 76.3 0.0
03 04:15 NW 6 8.05 Fog/Mist CLR 7 7 100% 76.28 0.0
03 03:55 NW 6 2.01 Fog/Mist VV007 7 7 100% 76.28 0.0
03 03:35 Calm 4.83 Fog/Mist CLR 7 7 100% 76.25 0.0
03 03:15 Calm 4.83 Fog/Mist SCT120 7 7 100% 76.25 0.0
03 02:55 Calm 8.05 Fog/Mist SCT002 BKN120 7 7 100% 76.23 0.0
03 02:35 Calm 0.40 Fog OVC002 7 7 100% 76.23 0.0
03 02:15 Calm 1.21 Fog/Mist BKN002 BKN110 8 8 100% 76.2 0.0
03 01:55 Calm 1.21 Fog/Mist BKN002 BKN100 8 8 100% 76.2 0.0
03 01:35 Calm 4.02 Fog/Mist SCT100 8 8 100% 76.23 0.0
03 01:15 Calm 11.27 Fair CLR 8 8 100% 76.2 0.0
03 00:55 Calm 16.09 Fair CLR 9 9 100% 76.2 0.0
03 00:35 W 6 11.27 Partly Cloudy SCT110 9 9 100% 76.2 0.0
03 00:15 Calm 11.27 Mostly Cloudy BKN110 9 9 100% 76.15 0.0
02 23:55 Calm 11.27 Mostly Cloudy BKN110 10 10 100% 76.17 0.0
02 23:35 Calm 4.02 Fog/Mist CLR 9 9 100% 76.15 0.0
02 23:15 Calm 8.05 Fog/Mist CLR 10 10 100% 76.12 0.0
02 22:55 Calm 11.27 Fair CLR 10 10 100% 76.12 0.0
02 22:35 N 6 16.09 Fair CLR 10 10 100% 76.12 0.0
02 22:15 N 6 16.09 Partly Cloudy SCT120 10 10 100% 76.1 0.0
02 21:55 N 6 16.09 Mostly Cloudy BKN120 11 11 100% 76.1 0.0
02 21:35 Calm 16.09 Overcast OVC110 11 11 100% 76.07 0.0
02 21:15 Calm 16.09 Overcast OVC110 11 11 100% 76.05 0.0
02 20:55 Calm 16.09 Mostly Cloudy BKN110 11 11 100% 76.02 0.0
02 20:35 N 6 16.09 Overcast OVC110 11 11 100% 76 0.0
02 20:15 Calm 16.09 Overcast OVC110 11 11 100% 75.97 0.0
02 19:55 N 7 16.09 Overcast SCT008 SCT055 OVC100 11 11 100% 75.95 0.0
02 19:35 N 9 16.09 Overcast SCT008 SCT050 OVC090 11 11 100% 75.97 0.0
02 19:15 N 13 16.09 Light Rain SCT008 SCT012 OVC080 11 11 100% 75.95 0.0
02 18:55 N 9 16.09 Light Rain BKN011 BKN019 OVC080 11 11 100% 75.92 0.0
02 18:35 N 9 11.27 Overcast SCT013 BKN019 OVC080 11 11 100% 75.92 0.0
02 18:15 N 13 16.09 Overcast SCT031 BKN065 OVC080 11 11 100% 75.92 0.0
02 17:55 N 13 16.09 Light Drizzle SCT008 BKN055 OVC065 11 11 100% 75.92 0.0 0.03
02 17:35 N 19 G 28 16.09 Overcast BKN008 BKN021 OVC065 11 11 100% 75.92 0.0
02 17:15 N 13 8.05 Light Drizzle BKN006 OVC011 11 11 100% 75.9 0.0
02 16:55 N 15 6.44 Light Drizzle OVC008 11 11 100% 75.9 0.0 0.03
02 16:35 N 11 8.05 Light Drizzle OVC010 12 12 100% 75.9 0.0
02 16:15 N 9 8.05 Light Rain SCT010 OVC015 12 12 100% 75.87 0.0
02 15:55 N 15 16.09 Overcast BKN008 OVC013 12 12 100% 75.87 0.0 0.03
02 15:15 N 11 16.09 Light Rain OVC008 12 12 100% 75.87 0.0
02 14:55 N 13 16.09 Light Rain OVC010 12 12 100% 75.87 0.0 0.15
02 14:35 N 13 11.27 Light Rain BKN008 OVC012 12 12 100% 75.9 0.0 0.13
02 14:15 N 15 8.05 Light Rain OVC008 12 12 100% 75.9 0.0 0.08
02 13:55 N 11 16.09 Light Rain OVC010 11 11 100% 75.92 0.0 0.05
02 13:35 N 13 6.44 Light Rain OVC008 11 11 100% 75.92 0.0 0.05
02 13:20 N 13 16.09 Light Rain OVC008 12 12 100% 75.92 0.0 0.03
02 12:55 N 19 16.09 Light Rain OVC008 11 11 100% 75.95 0.0 0.08
02 12:35 N 19 16.09 Light Rain OVC008 12 12 100% 75.92 0.0 0.05
02 12:15 N 15 8.05 Light Rain OVC008 11 11 100% 75.97 0.0 0.05
02 11:55 N 15 11.27 Light Rain BKN008 OVC012 12 12 100% 75.97 0.0 0.15
02 11:35 N 13 11.27 Light Rain BKN008 OVC012 11 11 100% 76.02 0.0 0.1
02 11:15 N 15 16.09 Light Rain BKN008 OVC033 12 12 100% 76 0.0 0.05
02 10:55 N 15 11.27 Light Rain BKN008 BKN031 OVC044 12 12 100% 75.95 0.0 0.18
02 10:35 N 19 G 26 8.05 Light Rain BKN008 BKN014 OVC030 12 12 100% 75.95 0.0 0.13
02 10:15 N 13 6.44 Light Rain BKN008 BKN011 OVC030 12 12 100% 75.95 0.0 0.08
02 09:55 N 13 6.44 Light Rain OVC010 12 12 100% 76 0.0 0.13
02 09:35 N 9 6.44 Light Rain BKN008 OVC012 13 13 100% 75.97 0.0 0.05
02 09:15 N 17 16.09 Light Drizzle BKN006 OVC014 13 13 100% 75.92 0.0
02 08:55 N 11 11.27 Overcast OVC006 13 13 100% 75.87 0.0
02 08:35 NE 11 11.27 Light Rain BKN006 BKN024 OVC039 13 13 100% 75.84 0.0
02 08:15 N 11 11.27 Light Drizzle BKN004 BKN022 OVC037 13 13 100% 75.87 0.0
02 07:55 N 7 16.09 Light Drizzle BKN004 BKN016 OVC050 13 13 100% 75.87 0.0 0.05
02 07:35 N 7 11.27 Light Rain SCT004 SCT019 OVC060 13 13 100% 75.9 0.0 0.03
02 07:15 N 6 11.27 Light Rain OVC060 13 13 100% 75.92 0.0 0.03
02 06:55 Calm 11.27 Light Rain SCT023 SCT035 OVC060 13 13 100% 75.92 0.0 0.05
02 06:35 Calm 11.27 Light Rain NULL 13 13 100% 75.9 0.0 0.03
02 06:15 Calm 16.09 Light Rain NULL 13 13 100% 75.87 0.0 0.03
02 05:55 Calm 16.09 Light Rain NULL 13 13 100% 75.87 0.0 0.1
02 05:35 Calm 11.27 Light Rain NULL 14 14 100% 75.9 0.0 0.08
02 04:55 Calm 16.09 Light Rain NULL 13 13 100% 75.9 0.0 0.2
02 04:35 Calm 11.27 Light Rain NULL 13 13 100% 75.9 0.0 0.18
02 04:15 N 6 11.27 Light Rain SCT018 BKN029 OVC034 14 14 100% 75.92 0.0 0.1
02 03:55 Calm 16.09 Light Rain BKN016 OVC024 15 15 100% 75.9 0.0 0.03
02 03:35 Calm 16.09 Light Rain OVC016 15 15 100% 75.87 0.0
02 03:15 Calm 16.09 Light Drizzle SCT016 OVC030 15 15 100% 75.87 0.0
02 02:55 Calm 16.09 Overcast OVC030 15 15 100% 75.87 0.0
02 02:35 Calm 16.09 Overcast OVC030 15 14 94% 75.9 0.0
02 02:15 Calm 16.09 Overcast SCT030 OVC080 15 15 100% 75.9 0.0
02 01:55 Calm 16.09 Overcast SCT080 OVC090 15 13 88% 75.92 0.0
02 01:35 Calm 16.09 Overcast SCT036 BKN080 OVC090 15 15 100% 75.92 0.0
02 01:15 Calm 16.09 Overcast SCT017 BKN035 OVC070 16 13 83% 75.95 0.0
02 00:55 Calm 16.09 Overcast OVC017 16 13 83% 75.97 0.0
02 00:35 Calm 16.09 Overcast BKN019 OVC048 16 13 83% 75.97 0.0
02 00:15 Calm 16.09 Overcast SCT019 BKN048 OVC120 15 13 88% 75.97 0.0
01 23:55 Calm 16.09 Overcast BKN048 OVC120 15 13 88% 75.97 0.0
01 23:35 Calm 16.09 Overcast SCT048 OVC120 16 13 83% 76 0.0
01 23:15 E 6 16.09 Mostly Cloudy SCT048 BKN120 16 13 83% 76 0.0
01 22:55 Calm 16.09 Partly Cloudy SCT048 SCT120 16 13 83% 76 0.0
01 22:35 Calm 16.09 Fair CLR 16 13 83% 76 0.0
01 22:15 E 6 16.09 Partly Cloudy SCT024 SCT031 16 13 83% 76 0.0
01 21:55 Calm 16.09 Overcast OVC024 16 13 83% 76 0.0
01 21:35 E 6 16.09 Overcast OVC024 16 13 83% 76 0.0
01 21:15 Calm 16.09 Overcast OVC024 17 13 77% 76 0.0
01 20:55 Calm 16.09 Overcast OVC024 17 14 83% 75.97 0.0
01 20:35 E 6 16.09 Mostly Cloudy BKN024 17 14 83% 75.95 0.0
01 20:15 E 6 16.09 Overcast OVC026 17 13 77% 75.95 0.0
01 19:55 Calm 16.09 Mostly Cloudy BKN026 17 13 77% 75.92 0.0
01 19:35 E 6 16.09 Overcast OVC028 17 13 77% 75.95 0.0
01 19:15 E 7 16.09 Overcast OVC028 18 13 73% 75.95 0.0
01 18:55 E 9 16.09 Overcast BKN028 OVC055 18 13 73% 75.95 0.0
01 18:35 E 7 16.09 Overcast OVC028 18 13 73% 75.95 0.0
01 18:15 E 7 16.09 Overcast OVC030 18 12 68% 75.97 0.0
01 17:55 Calm 16.09 Overcast BKN030 OVC100 19 12 64% 75.97 0.0
01 17:40 E 7 16.09 Overcast BKN030 BKN050 OVC100 20 12 60% 75.97 0.0
01 17:15 E 7 16.09 Partly Cloudy SCT034 SCT049 20 12 60% 75.95 0.0
01 16:55 E 6 16.09 Partly Cloudy SCT034 SCT039 SCT049 19 12 64% 75.95 0.0
Date Time (edt) Wind (kph) Vis. (km) Weather Sky Cond. Air Dwpt Max. Min. Relative Humidity Wind Chill (°C) Heat Index (°C) altimeter (cm) sea level (mb) 1 hr 3 hr 6 hr
6 hour
Temperature (ºC) Pressure Precipitation (cm)